NOS996 LIRF-EKVG
Flight info
| Callsign | NOS996 |
|---|---|
| Flight time | N/A |
| Altitude | 34000 |
| Route | SOSI5A SOSIV SOVAN CUSTD UTABA TEDGO KOVAN IBGES RIDSU LIPMI DIXAT ODMOS MONAV MY CL12 32LOC 20LOC ML12 |
| Aircraft | A20N/M-SDE2E3FGHIJ1RWXY/LB1 |
Departure
| Time | N/A |
|---|---|
| Airport | Rome–Fiumicino Leonardo da Vinci International Airport (LIRF) |
Arrival
| Time | 2026-05-07 11:46 |
|---|---|
| Airport | Vágar Airport (EKVG) |
| Time | Latitude | Longitude | Altitude | Speed | Heading |
|---|---|---|---|---|---|
| 2026-05-07 09:13 | 48.19475 | 9.49130 | 34004 ft | 453 kts | 339° |
| 2026-05-07 09:14 | 48.25429 | 9.46106 | 34001 ft | 452 kts | 338° |
| 2026-05-07 09:14 | 48.31345 | 9.42904 | 34006 ft | 451 kts | 338° |
| 2026-05-07 09:15 | 48.37227 | 9.39653 | 34005 ft | 452 kts | 338° |
| 2026-05-07 09:15 | 48.43104 | 9.36384 | 34004 ft | 451 kts | 338° |
| 2026-05-07 09:16 | 48.48968 | 9.33113 | 34013 ft | 451 kts | 338° |
| 2026-05-07 09:16 | 48.54853 | 9.29823 | 34021 ft | 451 kts | 338° |
| 2026-05-07 09:17 | 48.60713 | 9.26460 | 34020 ft | 449 kts | 336° |
| 2026-05-07 09:17 | 48.66482 | 9.22823 | 34022 ft | 449 kts | 335° |
| 2026-05-07 09:18 | 48.72224 | 9.19069 | 34022 ft | 450 kts | 334° |
| 2026-05-07 09:18 | 48.77940 | 9.15281 | 34018 ft | 449 kts | 334° |
| 2026-05-07 09:19 | 48.83647 | 9.11483 | 34011 ft | 449 kts | 334° |
| 2026-05-07 09:19 | 48.89362 | 9.07635 | 34012 ft | 449 kts | 334° |
| 2026-05-07 09:20 | 48.95068 | 9.03744 | 33997 ft | 448 kts | 334° |
| 2026-05-07 09:20 | 49.00749 | 8.99850 | 34009 ft | 448 kts | 334° |
| 2026-05-07 09:21 | 49.06437 | 8.95937 | 33999 ft | 448 kts | 334° |
| 2026-05-07 09:21 | 49.12075 | 8.92050 | 33994 ft | 447 kts | 334° |
| 2026-05-07 09:22 | 49.17748 | 8.88129 | 33995 ft | 448 kts | 334° |
| 2026-05-07 09:22 | 49.23438 | 8.84187 | 33997 ft | 448 kts | 334° |
| 2026-05-07 09:23 | 49.29128 | 8.80234 | 34003 ft | 447 kts | 334° |
| 2026-05-07 09:23 | 49.34757 | 8.76314 | 34007 ft | 448 kts | 334° |
| 2026-05-07 09:24 | 49.40456 | 8.72337 | 34013 ft | 447 kts | 334° |
| 2026-05-07 09:24 | 49.46113 | 8.68380 | 34020 ft | 446 kts | 334° |
| 2026-05-07 09:25 | 49.51751 | 8.64426 | 34021 ft | 447 kts | 334° |
| 2026-05-07 09:25 | 49.57402 | 8.60449 | 34015 ft | 447 kts | 334° |
| 2026-05-07 09:26 | 49.63042 | 8.56453 | 34014 ft | 447 kts | 334° |
| 2026-05-07 09:26 | 49.68327 | 8.52689 | 34009 ft | 446 kts | 334° |
| 2026-05-07 09:27 | 49.73912 | 8.48561 | 34006 ft | 446 kts | 332° |
| 2026-05-07 09:28 | 49.82134 | 8.41741 | 34012 ft | 446 kts | 330° |
| 2026-05-07 09:28 | 49.87554 | 8.37118 | 34012 ft | 445 kts | 330° |
| 2026-05-07 09:29 | 49.92981 | 8.32456 | 34016 ft | 445 kts | 330° |
| 2026-05-07 09:29 | 49.98384 | 8.27796 | 34015 ft | 444 kts | 330° |
| 2026-05-07 09:30 | 50.03768 | 8.23138 | 34018 ft | 443 kts | 329° |
| 2026-05-07 09:30 | 50.09155 | 8.18464 | 34019 ft | 444 kts | 330° |
| 2026-05-07 09:31 | 50.14545 | 8.13774 | 34015 ft | 443 kts | 329° |
| 2026-05-07 09:31 | 50.19919 | 8.09080 | 34019 ft | 443 kts | 329° |
| 2026-05-07 09:32 | 50.25293 | 8.04378 | 34017 ft | 443 kts | 329° |
| 2026-05-07 09:32 | 50.30636 | 7.99692 | 34018 ft | 442 kts | 329° |
| 2026-05-07 09:33 | 50.36008 | 7.94964 | 34015 ft | 442 kts | 329° |
| 2026-05-07 09:33 | 50.41369 | 7.90237 | 34013 ft | 442 kts | 329° |
| 2026-05-07 09:34 | 50.46703 | 7.85522 | 34008 ft | 441 kts | 330° |
| 2026-05-07 09:34 | 50.52054 | 7.80780 | 34007 ft | 441 kts | 329° |
| 2026-05-07 09:35 | 50.57412 | 7.76018 | 34008 ft | 440 kts | 329° |
| 2026-05-07 09:35 | 50.62721 | 7.71286 | 34008 ft | 441 kts | 329° |
| 2026-05-07 09:36 | 50.68062 | 7.66511 | 34008 ft | 442 kts | 329° |
| 2026-05-07 09:36 | 50.73397 | 7.61729 | 34009 ft | 441 kts | 329° |
| 2026-05-07 09:37 | 50.78765 | 7.56909 | 34026 ft | 442 kts | 329° |
| 2026-05-07 09:37 | 50.84087 | 7.52115 | 34029 ft | 441 kts | 330° |
| 2026-05-07 09:38 | 50.89412 | 7.47305 | 34034 ft | 441 kts | 329° |
| 2026-05-07 09:38 | 50.94745 | 7.42477 | 34035 ft | 442 kts | 329° |
| 2026-05-07 09:39 | 50.99189 | 7.38441 | 34036 ft | 441 kts | 330° |
| 2026-05-07 09:39 | 51.04523 | 7.33586 | 34033 ft | 441 kts | 330° |
| 2026-05-07 09:40 | 51.09845 | 7.28773 | 34032 ft | 441 kts | 331° |
| 2026-05-07 09:40 | 51.15262 | 7.24229 | 34029 ft | 441 kts | 332° |
| 2026-05-07 09:41 | 51.20437 | 7.20067 | 34032 ft | 441 kts | 333° |
| 2026-05-07 09:41 | 51.25848 | 7.15492 | 34036 ft | 441 kts | 329° |
| 2026-05-07 09:42 | 51.31029 | 7.10291 | 34041 ft | 441 kts | 327° |
| 2026-05-07 09:42 | 51.36175 | 7.04909 | 34043 ft | 441 kts | 326° |
| 2026-05-07 09:43 | 51.41301 | 6.99473 | 34044 ft | 440 kts | 326° |
| 2026-05-07 09:43 | 51.46375 | 6.94053 | 34041 ft | 440 kts | 326° |
| 2026-05-07 09:44 | 51.51477 | 6.88581 | 34046 ft | 440 kts | 326° |
| 2026-05-07 09:44 | 51.56568 | 6.83102 | 34048 ft | 442 kts | 326° |
| 2026-05-07 09:45 | 51.61641 | 6.77624 | 34044 ft | 441 kts | 326° |
| 2026-05-07 09:45 | 51.66725 | 6.72115 | 34046 ft | 441 kts | 326° |
| 2026-05-07 09:46 | 51.71808 | 6.66592 | 34045 ft | 441 kts | 325° |
| 2026-05-07 09:46 | 51.76931 | 6.61007 | 34047 ft | 442 kts | 325° |
| 2026-05-07 09:47 | 51.82006 | 6.55461 | 34054 ft | 442 kts | 325° |
| 2026-05-07 09:47 | 51.87111 | 6.49864 | 34050 ft | 442 kts | 325° |
| 2026-05-07 09:48 | 51.92193 | 6.44272 | 34047 ft | 443 kts | 324° |
| 2026-05-07 09:48 | 51.97285 | 6.38654 | 34047 ft | 443 kts | 325° |
| 2026-05-07 09:49 | 52.02359 | 6.33039 | 34047 ft | 443 kts | 325° |
| 2026-05-07 09:49 | 52.07434 | 6.27405 | 34047 ft | 443 kts | 324° |
| 2026-05-07 09:50 | 52.12539 | 6.21721 | 34046 ft | 443 kts | 324° |
| 2026-05-07 09:50 | 52.17601 | 6.16075 | 34048 ft | 443 kts | 324° |
| 2026-05-07 09:51 | 52.22697 | 6.10373 | 34042 ft | 444 kts | 324° |
| 2026-05-07 09:51 | 52.27773 | 6.04674 | 34046 ft | 443 kts | 324° |
| 2026-05-07 09:52 | 52.32863 | 5.98945 | 34050 ft | 443 kts | 324° |
| 2026-05-07 09:52 | 52.37946 | 5.93205 | 34060 ft | 443 kts | 324° |
| 2026-05-07 09:53 | 52.42990 | 5.87494 | 34061 ft | 443 kts | 324° |
| 2026-05-07 09:53 | 52.48045 | 5.81749 | 34062 ft | 442 kts | 324° |
| 2026-05-07 09:54 | 52.53090 | 5.76005 | 34065 ft | 442 kts | 324° |
| 2026-05-07 09:54 | 52.58140 | 5.70234 | 34067 ft | 443 kts | 324° |
| 2026-05-07 09:55 | 52.63185 | 5.64448 | 34064 ft | 443 kts | 324° |
| 2026-05-07 09:55 | 52.68250 | 5.58623 | 34069 ft | 443 kts | 325° |
| 2026-05-07 09:56 | 52.73280 | 5.52826 | 34056 ft | 443 kts | 325° |
| 2026-05-07 09:56 | 52.78338 | 5.46976 | 34059 ft | 443 kts | 325° |
| 2026-05-07 09:57 | 52.83374 | 5.41139 | 34059 ft | 443 kts | 325° |
| 2026-05-07 09:57 | 52.88398 | 5.35300 | 34067 ft | 442 kts | 325° |
| 2026-05-07 09:58 | 52.93422 | 5.29444 | 34073 ft | 442 kts | 326° |
| 2026-05-07 09:58 | 52.98460 | 5.23556 | 34079 ft | 442 kts | 326° |
| 2026-05-07 09:59 | 53.03481 | 5.17677 | 34074 ft | 442 kts | 326° |
| 2026-05-07 09:59 | 53.08477 | 5.11806 | 34083 ft | 442 kts | 326° |
| 2026-05-07 10:00 | 53.13506 | 5.05878 | 34076 ft | 442 kts | 326° |
| 2026-05-07 10:00 | 53.18547 | 4.99920 | 34083 ft | 442 kts | 326° |
| 2026-05-07 10:01 | 53.23535 | 4.94005 | 34089 ft | 442 kts | 326° |
| 2026-05-07 10:01 | 53.28535 | 4.88058 | 34085 ft | 441 kts | 326° |
| 2026-05-07 10:02 | 53.33517 | 4.82118 | 34092 ft | 441 kts | 326° |
| 2026-05-07 10:02 | 53.38501 | 4.76156 | 34106 ft | 440 kts | 326° |
| 2026-05-07 10:03 | 53.43497 | 4.70166 | 34099 ft | 441 kts | 326° |
| 2026-05-07 10:03 | 53.48484 | 4.64170 | 34103 ft | 441 kts | 326° |
| 2026-05-07 10:04 | 53.53473 | 4.58155 | 34104 ft | 441 kts | 326° |
| 2026-05-07 10:04 | 53.58447 | 4.52140 | 34108 ft | 441 kts | 326° |
| 2026-05-07 10:05 | 53.63406 | 4.46126 | 34105 ft | 441 kts | 326° |
| 2026-05-07 10:05 | 53.68398 | 4.40053 | 34104 ft | 441 kts | 326° |
| 2026-05-07 10:06 | 53.73358 | 4.34002 | 34108 ft | 441 kts | 326° |
| 2026-05-07 10:06 | 53.78315 | 4.27934 | 34113 ft | 441 kts | 326° |
| 2026-05-07 10:07 | 53.83300 | 4.21815 | 34106 ft | 441 kts | 325° |
| 2026-05-07 10:07 | 53.88253 | 4.15714 | 34114 ft | 441 kts | 325° |
| 2026-05-07 10:08 | 53.93188 | 4.09620 | 34105 ft | 441 kts | 325° |
| 2026-05-07 10:08 | 53.98156 | 4.03465 | 34119 ft | 441 kts | 325° |
| 2026-05-07 10:09 | 54.03090 | 3.97334 | 34108 ft | 440 kts | 325° |
| 2026-05-07 10:09 | 54.08038 | 3.91166 | 34113 ft | 440 kts | 325° |
| 2026-05-07 10:10 | 54.12958 | 3.85017 | 34113 ft | 440 kts | 324° |
| 2026-05-07 10:10 | 54.17895 | 3.78825 | 34112 ft | 440 kts | 324° |
| 2026-05-07 10:11 | 54.22824 | 3.72625 | 34114 ft | 439 kts | 324° |
| 2026-05-07 10:11 | 54.27727 | 3.66439 | 34118 ft | 439 kts | 324° |
| 2026-05-07 10:12 | 54.32666 | 3.60190 | 34117 ft | 439 kts | 324° |
| 2026-05-07 10:12 | 54.37570 | 3.53963 | 34116 ft | 439 kts | 323° |
| 2026-05-07 10:13 | 54.42449 | 3.47751 | 34118 ft | 439 kts | 323° |
| 2026-05-07 10:13 | 54.47359 | 3.41482 | 34126 ft | 439 kts | 323° |
| 2026-05-07 10:14 | 54.52249 | 3.35216 | 34128 ft | 439 kts | 323° |
| 2026-05-07 10:14 | 54.57140 | 3.28925 | 34122 ft | 440 kts | 323° |
| 2026-05-07 10:15 | 54.62031 | 3.22616 | 34117 ft | 440 kts | 322° |
| 2026-05-07 10:15 | 54.66954 | 3.16236 | 34121 ft | 440 kts | 322° |
| 2026-05-07 10:16 | 54.71836 | 3.09887 | 34126 ft | 440 kts | 322° |
| 2026-05-07 10:16 | 54.76827 | 3.03741 | 34125 ft | 440 kts | 324° |
| 2026-05-07 10:17 | 54.81876 | 2.97845 | 34123 ft | 439 kts | 325° |
| 2026-05-07 10:17 | 54.86971 | 2.91949 | 34126 ft | 439 kts | 325° |
| 2026-05-07 10:18 | 54.92047 | 2.86077 | 34123 ft | 440 kts | 325° |
| 2026-05-07 10:18 | 54.97155 | 2.80155 | 34127 ft | 440 kts | 325° |
| 2026-05-07 10:19 | 55.02236 | 2.74248 | 34125 ft | 439 kts | 324° |
| 2026-05-07 10:19 | 55.07311 | 2.68326 | 34122 ft | 440 kts | 324° |
| 2026-05-07 10:20 | 55.12384 | 2.62390 | 34123 ft | 440 kts | 324° |
| 2026-05-07 10:20 | 55.17483 | 2.56404 | 34121 ft | 440 kts | 324° |
| 2026-05-07 10:21 | 55.22553 | 2.50433 | 34124 ft | 440 kts | 324° |
| 2026-05-07 10:21 | 55.27619 | 2.44447 | 34123 ft | 440 kts | 324° |
| 2026-05-07 10:22 | 55.32699 | 2.38426 | 34114 ft | 439 kts | 324° |
| 2026-05-07 10:22 | 55.37744 | 2.32428 | 34125 ft | 439 kts | 323° |
| 2026-05-07 10:23 | 55.42816 | 2.26378 | 34117 ft | 439 kts | 323° |
| 2026-05-07 10:23 | 55.47841 | 2.20363 | 34120 ft | 438 kts | 323° |
| 2026-05-07 10:24 | 55.52871 | 2.14325 | 34117 ft | 438 kts | 323° |
| 2026-05-07 10:24 | 55.57918 | 2.08246 | 34118 ft | 438 kts | 323° |
| 2026-05-07 10:25 | 55.62933 | 2.02189 | 34111 ft | 437 kts | 323° |
| 2026-05-07 10:25 | 55.67949 | 1.96109 | 34116 ft | 437 kts | 323° |
| 2026-05-07 10:26 | 55.72947 | 1.90033 | 34109 ft | 437 kts | 323° |
| 2026-05-07 10:26 | 55.77937 | 1.83948 | 34118 ft | 435 kts | 323° |
| 2026-05-07 10:27 | 55.82942 | 1.77825 | 34109 ft | 436 kts | 322° |
| 2026-05-07 10:27 | 55.87920 | 1.71715 | 34108 ft | 436 kts | 322° |
| 2026-05-07 10:28 | 55.92899 | 1.65585 | 34103 ft | 435 kts | 322° |
| 2026-05-07 10:28 | 55.97877 | 1.59435 | 34105 ft | 435 kts | 322° |
| 2026-05-07 10:29 | 56.02866 | 1.53253 | 34102 ft | 435 kts | 322° |
| 2026-05-07 10:29 | 56.07817 | 1.47099 | 34109 ft | 435 kts | 322° |
| 2026-05-07 10:30 | 56.15251 | 1.37819 | 34098 ft | 434 kts | 322° |
| 2026-05-07 10:30 | 56.19393 | 1.32631 | 34105 ft | 434 kts | 322° |
| 2026-05-07 10:31 | 56.25160 | 1.25383 | 34099 ft | 434 kts | 322° |
| 2026-05-07 10:31 | 56.30082 | 1.19175 | 34090 ft | 433 kts | 321° |
| 2026-05-07 10:32 | 56.34200 | 1.13964 | 34094 ft | 434 kts | 321° |
| 2026-05-07 10:32 | 56.39154 | 1.07682 | 34099 ft | 434 kts | 321° |
| 2026-05-07 10:33 | 56.44058 | 1.01444 | 34090 ft | 433 kts | 321° |
| 2026-05-07 10:33 | 56.48973 | 0.95170 | 34087 ft | 433 kts | 321° |
| 2026-05-07 10:34 | 56.53913 | 0.88843 | 34086 ft | 433 kts | 321° |
| 2026-05-07 10:34 | 56.58804 | 0.82559 | 34088 ft | 432 kts | 321° |
| 2026-05-07 10:35 | 56.63723 | 0.76218 | 34083 ft | 432 kts | 321° |
| 2026-05-07 10:35 | 56.68608 | 0.69899 | 34083 ft | 433 kts | 321° |
| 2026-05-07 10:36 | 56.73497 | 0.63554 | 34080 ft | 432 kts | 321° |
| 2026-05-07 10:36 | 56.78375 | 0.57205 | 34078 ft | 431 kts | 321° |
| 2026-05-07 10:37 | 56.83272 | 0.50808 | 34077 ft | 432 kts | 320° |
| 2026-05-07 10:37 | 56.88145 | 0.44420 | 34072 ft | 431 kts | 320° |
| 2026-05-07 10:38 | 56.92997 | 0.38044 | 34074 ft | 430 kts | 320° |
| 2026-05-07 10:38 | 56.97847 | 0.31647 | 34068 ft | 430 kts | 320° |
| 2026-05-07 10:39 | 57.02723 | 0.25196 | 34062 ft | 430 kts | 320° |
| 2026-05-07 10:39 | 57.07550 | 0.18788 | 34065 ft | 429 kts | 320° |
| 2026-05-07 10:40 | 57.12398 | 0.12331 | 34059 ft | 429 kts | 320° |
| 2026-05-07 10:40 | 57.17211 | 0.05896 | 34059 ft | 429 kts | 320° |
| 2026-05-07 10:41 | 57.22052 | -0.00594 | 34056 ft | 429 kts | 320° |
| 2026-05-07 10:41 | 57.26847 | -0.07048 | 34048 ft | 428 kts | 319° |
| 2026-05-07 10:42 | 57.31663 | -0.13550 | 34048 ft | 427 kts | 319° |
| 2026-05-07 10:42 | 57.36460 | -0.20047 | 34046 ft | 427 kts | 319° |
| 2026-05-07 10:43 | 57.41250 | -0.26555 | 34045 ft | 426 kts | 319° |
| 2026-05-07 10:43 | 57.46004 | -0.33036 | 34042 ft | 426 kts | 319° |
| 2026-05-07 10:44 | 57.50762 | -0.39543 | 34036 ft | 426 kts | 319° |
| 2026-05-07 10:44 | 57.55552 | -0.46117 | 34039 ft | 425 kts | 319° |
| 2026-05-07 10:45 | 57.60291 | -0.52641 | 34037 ft | 424 kts | 319° |
| 2026-05-07 10:45 | 57.65013 | -0.59164 | 34030 ft | 423 kts | 319° |
| 2026-05-07 10:46 | 57.69743 | -0.65723 | 34027 ft | 424 kts | 319° |
| 2026-05-07 10:46 | 57.74462 | -0.72284 | 34023 ft | 423 kts | 318° |
| 2026-05-07 10:47 | 57.79186 | -0.78875 | 34024 ft | 422 kts | 318° |
| 2026-05-07 10:47 | 57.83888 | -0.85461 | 34010 ft | 422 kts | 318° |
| 2026-05-07 10:48 | 57.88581 | -0.92055 | 34010 ft | 421 kts | 318° |
| 2026-05-07 10:48 | 57.93275 | -0.98672 | 34008 ft | 420 kts | 318° |
| 2026-05-07 10:49 | 57.97943 | -1.05274 | 34003 ft | 420 kts | 318° |
| 2026-05-07 10:49 | 58.02600 | -1.11885 | 33996 ft | 420 kts | 318° |
| 2026-05-07 10:50 | 58.07245 | -1.18498 | 33995 ft | 419 kts | 317° |
| 2026-05-07 10:50 | 58.11905 | -1.25155 | 33995 ft | 419 kts | 317° |
| 2026-05-07 10:51 | 58.16536 | -1.31796 | 33987 ft | 418 kts | 317° |
| 2026-05-07 10:51 | 58.21160 | -1.38445 | 33983 ft | 417 kts | 317° |
| 2026-05-07 10:52 | 58.25802 | -1.45150 | 33981 ft | 418 kts | 317° |
| 2026-05-07 10:52 | 58.30410 | -1.51831 | 33976 ft | 417 kts | 317° |
| 2026-05-07 10:53 | 58.35015 | -1.58528 | 33971 ft | 417 kts | 317° |
| 2026-05-07 10:53 | 58.39672 | -1.65078 | 33970 ft | 418 kts | 319° |
| 2026-05-07 10:54 | 58.44400 | -1.71587 | 33958 ft | 418 kts | 319° |
| 2026-05-07 10:54 | 58.49110 | -1.78074 | 33961 ft | 417 kts | 319° |
| 2026-05-07 10:55 | 58.53824 | -1.84597 | 33951 ft | 418 kts | 318° |
| 2026-05-07 10:55 | 58.58524 | -1.91138 | 33954 ft | 418 kts | 318° |
| 2026-05-07 10:56 | 58.63219 | -1.97701 | 33945 ft | 417 kts | 318° |
| 2026-05-07 10:56 | 58.67892 | -2.04263 | 33942 ft | 417 kts | 318° |
| 2026-05-07 10:57 | 58.72560 | -2.10845 | 33941 ft | 417 kts | 318° |
| 2026-05-07 10:57 | 58.77250 | -2.17488 | 33934 ft | 417 kts | 318° |
| 2026-05-07 10:58 | 58.81906 | -2.24106 | 33931 ft | 416 kts | 318° |
| 2026-05-07 10:58 | 58.86558 | -2.30747 | 33928 ft | 417 kts | 318° |
| 2026-05-07 10:59 | 58.91207 | -2.37402 | 33920 ft | 416 kts | 318° |
| 2026-05-07 10:59 | 58.95879 | -2.44119 | 33916 ft | 416 kts | 318° |
| 2026-05-07 11:00 | 59.00518 | -2.50807 | 33914 ft | 416 kts | 318° |
| 2026-05-07 11:00 | 59.05141 | -2.57496 | 33916 ft | 416 kts | 318° |
| 2026-05-07 11:01 | 59.09763 | -2.64209 | 33916 ft | 416 kts | 318° |
| 2026-05-07 11:01 | 59.14403 | -2.70965 | 33910 ft | 417 kts | 318° |
| 2026-05-07 11:02 | 59.19050 | -2.77760 | 33905 ft | 416 kts | 318° |
| 2026-05-07 11:02 | 59.23661 | -2.84525 | 33902 ft | 416 kts | 318° |
| 2026-05-07 11:03 | 59.28272 | -2.91316 | 33893 ft | 417 kts | 318° |
| 2026-05-07 11:03 | 59.32923 | -2.98185 | 33885 ft | 416 kts | 318° |
| 2026-05-07 11:04 | 59.37526 | -3.05006 | 33882 ft | 417 kts | 318° |
| 2026-05-07 11:04 | 59.42165 | -3.11906 | 33881 ft | 419 kts | 318° |
| 2026-05-07 11:05 | 59.46802 | -3.18827 | 33876 ft | 419 kts | 317° |
| 2026-05-07 11:05 | 59.51415 | -3.25734 | 33872 ft | 419 kts | 317° |
| 2026-05-07 11:06 | 59.56064 | -3.32723 | 33874 ft | 421 kts | 317° |
| 2026-05-07 11:06 | 59.60718 | -3.39743 | 33868 ft | 421 kts | 317° |
| 2026-05-07 11:07 | 59.65382 | -3.46804 | 33869 ft | 422 kts | 317° |
| 2026-05-07 11:07 | 59.70023 | -3.53856 | 33866 ft | 422 kts | 317° |
| 2026-05-07 11:08 | 59.74688 | -3.60970 | 33864 ft | 423 kts | 317° |
| 2026-05-07 11:08 | 59.79353 | -3.68108 | 33857 ft | 424 kts | 317° |
| 2026-05-07 11:09 | 59.84017 | -3.75272 | 33856 ft | 424 kts | 317° |
| 2026-05-07 11:09 | 59.88664 | -3.82435 | 33848 ft | 425 kts | 317° |
| 2026-05-07 11:10 | 59.93347 | -3.89685 | 33846 ft | 426 kts | 317° |
| 2026-05-07 11:10 | 59.98026 | -3.96952 | 33843 ft | 425 kts | 317° |
| 2026-05-07 11:11 | 60.02682 | -4.04211 | 33844 ft | 426 kts | 317° |
| 2026-05-07 11:11 | 60.07349 | -4.11514 | 33837 ft | 427 kts | 316° |
| 2026-05-07 11:12 | 60.12017 | -4.18847 | 33843 ft | 427 kts | 316° |
| 2026-05-07 11:12 | 60.16678 | -4.26192 | 33845 ft | 427 kts | 316° |
| 2026-05-07 11:13 | 60.21355 | -4.33593 | 33825 ft | 428 kts | 316° |
| 2026-05-07 11:13 | 60.26029 | -4.41015 | 33820 ft | 428 kts | 316° |
| 2026-05-07 11:14 | 60.30705 | -4.48469 | 33820 ft | 428 kts | 316° |
| 2026-05-07 11:14 | 60.35370 | -4.55933 | 33809 ft | 429 kts | 316° |
| 2026-05-07 11:15 | 60.40041 | -4.63441 | 33811 ft | 430 kts | 316° |
| 2026-05-07 11:15 | 60.44705 | -4.70961 | 33804 ft | 430 kts | 316° |
| 2026-05-07 11:16 | 60.49378 | -4.78524 | 33803 ft | 430 kts | 316° |
| 2026-05-07 11:16 | 60.54059 | -4.86128 | 33800 ft | 431 kts | 316° |
| 2026-05-07 11:17 | 60.58712 | -4.93719 | 33798 ft | 428 kts | 316° |
| 2026-05-07 11:17 | 60.60980 | -4.97409 | 33791 ft | 404 kts | 316° |
| 2026-05-07 11:17 | 60.63115 | -5.00875 | 33792 ft | 386 kts | 316° |
| 2026-05-07 11:18 | 60.67285 | -5.07709 | 33792 ft | 386 kts | 316° |
| 2026-05-07 11:18 | 60.71488 | -5.14664 | 33787 ft | 391 kts | 316° |
| 2026-05-07 11:19 | 60.75685 | -5.21624 | 33643 ft | 390 kts | 316° |
| 2026-05-07 11:19 | 60.77802 | -5.25139 | 33302 ft | 387 kts | 316° |
| 2026-05-07 11:19 | 60.79864 | -5.28562 | 32841 ft | 383 kts | 315° |
| 2026-05-07 11:20 | 60.81934 | -5.32001 | 32284 ft | 378 kts | 315° |
| 2026-05-07 11:20 | 60.83945 | -5.35344 | 31724 ft | 372 kts | 315° |
| 2026-05-07 11:20 | 60.85955 | -5.38693 | 31155 ft | 366 kts | 315° |
| 2026-05-07 11:20 | 60.87900 | -5.41940 | 30605 ft | 360 kts | 315° |
| 2026-05-07 11:21 | 60.89839 | -5.45180 | 30058 ft | 355 kts | 315° |
| 2026-05-07 11:21 | 60.91725 | -5.48339 | 29475 ft | 349 kts | 315° |
| 2026-05-07 11:21 | 60.93604 | -5.51486 | 28790 ft | 344 kts | 314° |
| 2026-05-07 11:21 | 60.95432 | -5.54555 | 28156 ft | 339 kts | 314° |
| 2026-05-07 11:22 | 60.97254 | -5.57621 | 27534 ft | 335 kts | 314° |
| 2026-05-07 11:22 | 60.99051 | -5.60651 | 26914 ft | 330 kts | 314° |
| 2026-05-07 11:22 | 61.00792 | -5.63591 | 26319 ft | 326 kts | 313° |
| 2026-05-07 11:22 | 61.02543 | -5.66554 | 25737 ft | 322 kts | 313° |
| 2026-05-07 11:23 | 61.04273 | -5.69486 | 25172 ft | 318 kts | 313° |
| 2026-05-07 11:23 | 61.05952 | -5.72337 | 24623 ft | 314 kts | 313° |
| 2026-05-07 11:23 | 61.07067 | -5.74232 | 24256 ft | 311 kts | 313° |
| 2026-05-07 11:23 | 61.09277 | -5.77996 | 23526 ft | 307 kts | 312° |
| 2026-05-07 11:24 | 61.10389 | -5.79892 | 23141 ft | 304 kts | 312° |
| 2026-05-07 11:24 | 61.11994 | -5.82648 | 22472 ft | 302 kts | 312° |
| 2026-05-07 11:24 | 61.14131 | -5.86345 | 21553 ft | 301 kts | 313° |
| 2026-05-07 11:24 | 61.15198 | -5.88195 | 21123 ft | 300 kts | 313° |
| 2026-05-07 11:25 | 61.16798 | -5.90972 | 20475 ft | 298 kts | 314° |
| 2026-05-07 11:25 | 61.18391 | -5.93736 | 19849 ft | 298 kts | 314° |
| 2026-05-07 11:25 | 61.19964 | -5.96468 | 19225 ft | 297 kts | 315° |
| 2026-05-07 11:25 | 61.21550 | -5.99222 | 18612 ft | 297 kts | 315° |
| 2026-05-07 11:26 | 61.23143 | -6.01989 | 18018 ft | 296 kts | 316° |
| 2026-05-07 11:26 | 61.24710 | -6.04707 | 17357 ft | 295 kts | 316° |
| 2026-05-07 11:26 | 61.26297 | -6.07449 | 16712 ft | 295 kts | 316° |
| 2026-05-07 11:26 | 61.27861 | -6.10149 | 16072 ft | 295 kts | 317° |
| 2026-05-07 11:27 | 61.29446 | -6.12883 | 15466 ft | 294 kts | 317° |
| 2026-05-07 11:27 | 61.31019 | -6.15601 | 14882 ft | 293 kts | 317° |
| 2026-05-07 11:27 | 61.32592 | -6.18322 | 14274 ft | 293 kts | 317° |
| 2026-05-07 11:27 | 61.34145 | -6.21015 | 13688 ft | 294 kts | 317° |
| 2026-05-07 11:28 | 61.35717 | -6.23750 | 13079 ft | 293 kts | 316° |
| 2026-05-07 11:28 | 61.37285 | -6.26485 | 12460 ft | 292 kts | 317° |
| 2026-05-07 11:28 | 61.38858 | -6.29235 | 12059 ft | 298 kts | 317° |
| 2026-05-07 11:28 | 61.40414 | -6.31947 | 11724 ft | 290 kts | 317° |
| 2026-05-07 11:29 | 61.41962 | -6.34656 | 11146 ft | 289 kts | 317° |
| 2026-05-07 11:29 | 61.43483 | -6.37327 | 10608 ft | 287 kts | 317° |
| 2026-05-07 11:29 | 61.45017 | -6.40024 | 10079 ft | 285 kts | 318° |
| 2026-05-07 11:29 | 61.46526 | -6.42672 | 9547 ft | 284 kts | 318° |
| 2026-05-07 11:30 | 61.48034 | -6.45333 | 8957 ft | 282 kts | 318° |
| 2026-05-07 11:30 | 61.49515 | -6.47958 | 8399 ft | 281 kts | 319° |
| 2026-05-07 11:30 | 61.51024 | -6.50624 | 8020 ft | 281 kts | 319° |
| 2026-05-07 11:30 | 61.52498 | -6.53223 | 7522 ft | 279 kts | 319° |
| 2026-05-07 11:31 | 61.53978 | -6.55847 | 7032 ft | 276 kts | 319° |
| 2026-05-07 11:31 | 61.55460 | -6.58476 | 6477 ft | 277 kts | 319° |
| 2026-05-07 11:31 | 61.56924 | -6.61077 | 6065 ft | 279 kts | 320° |
| 2026-05-07 11:31 | 61.58398 | -6.63699 | 5878 ft | 274 kts | 320° |
| 2026-05-07 11:32 | 61.61296 | -6.68858 | 5778 ft | 274 kts | 320° |
| 2026-05-07 11:32 | 61.62515 | -6.71026 | 5759 ft | 274 kts | 320° |
| 2026-05-07 11:32 | 61.63979 | -6.73634 | 5759 ft | 274 kts | 320° |
| 2026-05-07 11:33 | 61.65424 | -6.76212 | 5753 ft | 275 kts | 320° |
| 2026-05-07 11:33 | 61.66886 | -6.78820 | 5755 ft | 275 kts | 321° |
| 2026-05-07 11:33 | 61.68359 | -6.81456 | 5758 ft | 276 kts | 320° |
| 2026-05-07 11:33 | 61.69819 | -6.84073 | 5761 ft | 277 kts | 321° |
| 2026-05-07 11:34 | 61.71271 | -6.86680 | 5765 ft | 277 kts | 321° |
| 2026-05-07 11:34 | 61.72738 | -6.89320 | 5765 ft | 276 kts | 321° |
| 2026-05-07 11:34 | 61.74199 | -6.91953 | 5771 ft | 275 kts | 321° |
| 2026-05-07 11:34 | 61.75656 | -6.94586 | 5854 ft | 286 kts | 321° |
| 2026-05-07 11:35 | 61.77203 | -6.97381 | 5824 ft | 290 kts | 321° |
| 2026-05-07 11:35 | 61.78691 | -7.00084 | 5802 ft | 270 kts | 321° |
| 2026-05-07 11:35 | 61.80073 | -7.02599 | 5798 ft | 256 kts | 322° |
| 2026-05-07 11:35 | 61.81416 | -7.05035 | 5797 ft | 255 kts | 322° |
| 2026-05-07 11:36 | 61.82772 | -7.07492 | 5801 ft | 255 kts | 322° |
| 2026-05-07 11:36 | 61.84105 | -7.09910 | 5801 ft | 256 kts | 322° |
| 2026-05-07 11:36 | 61.85466 | -7.12383 | 5644 ft | 254 kts | 323° |
| 2026-05-07 11:36 | 61.86789 | -7.14797 | 5275 ft | 253 kts | 323° |
| 2026-05-07 11:37 | 61.88130 | -7.17254 | 4868 ft | 255 kts | 323° |
| 2026-05-07 11:37 | 61.89467 | -7.19708 | 4573 ft | 252 kts | 324° |
| 2026-05-07 11:37 | 61.90790 | -7.22144 | 4258 ft | 250 kts | 324° |
| 2026-05-07 11:37 | 61.92098 | -7.24540 | 4122 ft | 249 kts | 325° |
| 2026-05-07 11:38 | 61.93416 | -7.26948 | 4057 ft | 247 kts | 325° |
| 2026-05-07 11:38 | 61.94705 | -7.29302 | 4033 ft | 246 kts | 325° |
| 2026-05-07 11:38 | 61.96012 | -7.31692 | 3934 ft | 248 kts | 326° |
| 2026-05-07 11:38 | 61.97319 | -7.34093 | 3795 ft | 245 kts | 326° |
| 2026-05-07 11:39 | 61.98587 | -7.36448 | 3739 ft | 245 kts | 321° |
| 2026-05-07 11:39 | 61.99619 | -7.39411 | 3719 ft | 250 kts | 307° |
| 2026-05-07 11:39 | 62.00528 | -7.42545 | 3696 ft | 251 kts | 306° |
| 2026-05-07 11:39 | 62.01467 | -7.45685 | 3689 ft | 250 kts | 308° |
| 2026-05-07 11:40 | 62.02462 | -7.48736 | 3681 ft | 249 kts | 312° |
| 2026-05-07 11:40 | 62.03523 | -7.51622 | 3677 ft | 248 kts | 317° |
| 2026-05-07 11:40 | 62.04683 | -7.54320 | 3679 ft | 245 kts | 324° |
| 2026-05-07 11:40 | 62.05946 | -7.56675 | 3683 ft | 240 kts | 336° |
| 2026-05-07 11:41 | 62.07409 | -7.58172 | 3691 ft | 227 kts | 355° |
| 2026-05-07 11:41 | 62.08918 | -7.58676 | 3675 ft | 219 kts | 2° |
| 2026-05-07 11:41 | 62.10422 | -7.59494 | 3494 ft | 223 kts | 1° |
| 2026-05-07 11:41 | 62.11801 | -7.59071 | 3384 ft | 189 kts | 47° |
| 2026-05-07 11:42 | 62.12445 | -7.56920 | 3299 ft | 174 kts | 72° |
| 2026-05-07 11:42 | 62.12805 | -7.54525 | 3055 ft | 165 kts | 101° |
| 2026-05-07 11:42 | 62.12120 | -7.52746 | 3145 ft | 148 kts | 139° |
| 2026-05-07 11:42 | 62.11342 | -7.51880 | 3305 ft | 126 kts | 139° |
| 2026-05-07 11:43 | 62.10477 | -7.50982 | 2992 ft | 144 kts | 132° |
| 2026-05-07 11:43 | 62.09848 | -7.49462 | 2722 ft | 141 kts | 111° |
| 2026-05-07 11:43 | 62.09315 | -7.47690 | 2365 ft | 141 kts | 115° |
| 2026-05-07 11:43 | 62.08852 | -7.45947 | 2006 ft | 133 kts | 103° |
| 2026-05-07 11:44 | 62.08553 | -7.44080 | 1635 ft | 138 kts | 99° |
| 2026-05-07 11:44 | 62.08366 | -7.42090 | 1301 ft | 134 kts | 90° |
| 2026-05-07 11:44 | 62.08322 | -7.40245 | 1344 ft | 120 kts | 90° |
| 2026-05-07 11:44 | 62.08259 | -7.38465 | 1237 ft | 123 kts | 91° |
| 2026-05-07 11:45 | 62.08128 | -7.36627 | 1076 ft | 128 kts | 95° |
| 2026-05-07 11:45 | 62.07979 | -7.34724 | 856 ft | 133 kts | 98° |
| 2026-05-07 11:45 | 62.07640 | -7.32892 | 674 ft | 131 kts | 114° |
| 2026-05-07 11:45 | 62.07211 | -7.31231 | 461 ft | 129 kts | 109° |
| 2026-05-07 11:46 | 62.06792 | -7.29551 | 326 ft | 127 kts | 111° |
| 2026-05-07 11:46 | 62.06441 | -7.28039 | 264 ft | 97 kts | 115° |
| 2026-05-07 11:46 | 62.06212 | -7.27126 | 254 ft | 58 kts | 118° |
| 2026-05-07 11:46 | 62.06040 | -7.26464 | 248 ft | 44 kts | 118° |
| 2026-05-07 11:47 | 62.05952 | -7.26059 | 241 ft | 16 kts | 96° |
| 2026-05-07 11:47 | 62.05936 | -7.26006 | 243 ft | 2 kts | 179° |
| 2026-05-07 11:47 | 62.05920 | -7.26054 | 242 ft | 10 kts | 259° |
| 2026-05-07 11:47 | 62.06004 | -7.26320 | 245 ft | 38 kts | 300° |
| 2026-05-07 11:48 | 62.06171 | -7.26988 | 253 ft | 63 kts | 297° |
| 2026-05-07 11:48 | 62.06385 | -7.27843 | 264 ft | 53 kts | 298° |
| 2026-05-07 11:48 | 62.06478 | -7.28122 | 265 ft | 10 kts | 354° |
| 2026-05-07 11:48 | 62.06565 | -7.28080 | 264 ft | 15 kts | 9° |
| 2026-05-07 11:49 | 62.06635 | -7.28028 | 264 ft | 8 kts | 69° |
| 2026-05-07 11:49 | 62.06650 | -7.27964 | 264 ft | 4 kts | 34° |
| 2026-05-07 11:49 | 62.06679 | -7.27930 | 264 ft | 1 kts | 27° |